createdAt,value
2023-03-15T00:01:39.820Z,3.87
2023-03-15T00:04:07.377Z,3.57
2023-03-15T00:06:37.103Z,5.43
2023-03-15T00:09:05.136Z,3.97
2023-03-15T00:11:32.547Z,3.43
2023-03-15T00:14:02.239Z,4.20
2023-03-15T00:16:29.814Z,4.87
2023-03-15T00:18:58.362Z,6.53
2023-03-15T00:21:25.861Z,4.47
2023-03-15T00:23:53.600Z,3.53
2023-03-15T00:26:21.133Z,3.37
2023-03-15T00:28:50.946Z,3.53
2023-03-15T00:31:20.843Z,3.93
2023-03-15T00:33:48.516Z,3.23
2023-03-15T00:36:16.993Z,4.47
2023-03-15T00:38:44.469Z,3.90
2023-03-15T00:41:13.314Z,5.80
2023-03-15T00:43:40.936Z,3.27
2023-03-15T00:46:09.193Z,3.20
2023-03-15T00:48:39.071Z,3.17
2023-03-15T00:51:19.891Z,3.10
2023-03-15T00:53:47.547Z,3.43
2023-03-15T00:56:16.948Z,3.40
2023-03-15T00:58:44.590Z,3.23
2023-03-15T01:01:21.295Z,2.97
2023-03-15T01:03:49.352Z,2.40
2023-03-15T01:06:18.577Z,3.47
2023-03-15T01:08:46.411Z,2.53
2023-03-15T01:11:18.457Z,3.20
2023-03-15T01:13:46.092Z,2.93
2023-03-15T01:16:14.618Z,3.03
2023-03-15T01:18:42.548Z,2.40
2023-03-15T01:21:11.620Z,4.20
2023-03-15T01:23:39.252Z,3.00
2023-03-15T01:26:08.267Z,3.00
2023-03-15T01:28:35.714Z,3.60
2023-03-15T01:31:05.301Z,3.03
2023-03-15T01:33:32.941Z,3.70
2023-03-15T01:36:01.165Z,3.20
2023-03-15T01:38:28.769Z,3.00
2023-03-15T01:40:56.268Z,3.17
2023-03-15T01:43:26.188Z,3.47
2023-03-15T01:46:13.579Z,2.97
2023-03-15T01:48:46.000Z,3.20
2023-03-15T01:51:22.995Z,3.03
2023-03-15T01:53:54.217Z,3.30
2023-03-15T01:56:22.754Z,4.00
2023-03-15T01:58:51.479Z,3.73
2023-03-15T02:01:20.558Z,3.50
2023-03-15T02:03:49.565Z,3.47
2023-03-15T02:06:18.891Z,3.10
2023-03-15T02:08:50.929Z,4.13
2023-03-15T02:11:23.410Z,3.17
2023-03-15T02:13:51.106Z,3.00
2023-03-15T02:16:19.376Z,3.20
2023-03-15T02:18:54.418Z,4.13
2023-03-15T02:21:41.791Z,4.15
2023-03-15T02:24:16.137Z,3.20
2023-03-15T02:26:45.579Z,3.17
2023-03-15T02:29:13.197Z,3.13
2023-03-15T02:31:40.811Z,3.13
2023-03-15T02:34:08.889Z,3.57
2023-03-15T02:36:37.361Z,3.90
2023-03-15T02:39:14.774Z,3.80
2023-03-15T02:41:46.033Z,3.33
2023-03-15T02:44:17.050Z,3.30
2023-03-15T02:46:47.258Z,3.90
2023-03-15T02:49:14.776Z,4.20
2023-03-15T02:51:42.377Z,3.20
2023-03-15T02:54:09.878Z,4.60
2023-03-15T02:56:37.589Z,3.80
2023-03-15T02:59:05.070Z,3.90
2023-03-15T03:01:32.577Z,3.40
2023-03-15T03:04:00.019Z,3.77
2023-03-15T03:06:27.691Z,3.10
2023-03-15T03:08:55.210Z,3.57
2023-03-15T03:11:22.559Z,3.67
2023-03-15T03:13:57.305Z,3.50
2023-03-15T03:16:24.984Z,4.13
2023-03-15T03:18:52.589Z,3.27
2023-03-15T03:21:20.299Z,4.53
2023-03-15T03:23:47.863Z,4.40
2023-03-15T03:26:17.151Z,4.33
2023-03-15T03:28:45.857Z,4.50
2023-03-15T03:31:17.501Z,4.77
2023-03-15T03:33:47.723Z,4.00
2023-03-15T03:36:15.631Z,4.27
2023-03-15T03:38:43.947Z,4.30
2023-03-15T03:41:12.247Z,4.23
2023-03-15T03:43:39.949Z,4.03
2023-03-15T03:46:07.549Z,3.70
2023-03-15T03:48:35.367Z,4.30
2023-03-15T03:51:05.442Z,3.20
2023-03-15T03:53:33.056Z,4.93
2023-03-15T03:56:04.278Z,4.17
2023-03-15T03:58:31.819Z,4.03
2023-03-15T04:00:59.570Z,3.67
2023-03-15T04:03:29.529Z,3.90
2023-03-15T04:05:57.566Z,4.50
2023-03-15T04:08:26.003Z,4.50
2023-03-15T04:10:54.343Z,3.20
2023-03-15T04:13:22.271Z,3.10
2023-03-15T04:15:49.789Z,3.40
2023-03-15T04:18:17.576Z,2.90
2023-03-15T04:20:47.151Z,2.57
2023-03-15T04:23:15.392Z,2.97
2023-03-15T04:25:43.408Z,3.20
2023-03-15T04:28:11.114Z,2.97
2023-03-15T04:30:41.227Z,2.57
2023-03-15T04:33:11.423Z,3.00
2023-03-15T04:35:40.975Z,2.53
2023-03-15T04:38:08.512Z,2.43
2023-03-15T04:40:36.417Z,2.70
2023-03-15T04:43:05.483Z,3.10
2023-03-15T04:45:33.199Z,3.00
2023-03-15T04:48:01.677Z,3.43
2023-03-15T04:50:32.151Z,3.50
2023-03-15T04:53:00.105Z,3.40
2023-03-15T04:55:27.682Z,3.10
2023-03-15T04:57:55.653Z,4.00
2023-03-15T05:00:26.238Z,2.90
2023-03-15T05:02:55.180Z,2.80
2023-03-15T05:05:25.519Z,3.50
2023-03-15T05:07:53.206Z,2.97
2023-03-15T05:10:20.903Z,2.67
2023-03-15T05:12:49.412Z,3.37
2023-03-15T05:15:17.038Z,2.93
2023-03-15T05:17:46.624Z,3.40
2023-03-15T05:20:14.931Z,3.30
2023-03-15T05:22:44.935Z,3.63
2023-03-15T05:25:12.502Z,3.57
2023-03-15T05:27:40.066Z,3.53
2023-03-15T05:30:09.003Z,3.50
2023-03-15T05:32:39.706Z,4.97
2023-03-15T05:35:08.645Z,4.23
2023-03-15T05:37:36.242Z,4.00
2023-03-15T05:40:08.332Z,5.93
2023-03-15T05:42:36.372Z,4.37
2023-03-15T05:45:04.197Z,4.63
2023-03-15T05:47:33.250Z,4.03
2023-03-15T05:50:01.918Z,3.87
2023-03-15T05:52:29.544Z,4.77
2023-03-15T05:54:57.067Z,4.77
2023-03-15T05:57:24.538Z,4.20
2023-03-15T05:59:54.082Z,4.23
2023-03-15T06:02:23.599Z,4.70
2023-03-15T06:04:51.274Z,4.07
2023-03-15T06:07:19.050Z,4.00
2023-03-15T06:09:49.094Z,3.17
2023-03-15T06:12:16.554Z,4.10
2023-03-15T06:14:44.322Z,5.53
2023-03-15T06:17:11.979Z,5.57
2023-03-15T06:19:49.557Z,3.93
2023-03-15T06:22:40.348Z,4.27
2023-03-15T06:25:08.318Z,3.13
2023-03-15T06:27:35.965Z,3.53
2023-03-15T06:30:03.607Z,2.90
2023-03-15T06:32:31.328Z,3.20
2023-03-15T06:34:58.860Z,4.13
2023-03-15T06:37:35.376Z,3.70
2023-03-15T06:40:07.406Z,3.80
2023-03-15T06:42:35.028Z,3.63
2023-03-15T06:45:03.625Z,14.93
2023-03-15T06:47:31.186Z,7.03
2023-03-15T06:50:18.533Z,4.47
2023-03-15T06:52:46.096Z,6.30
2023-03-15T06:55:21.557Z,5.27
2023-03-15T07:09:29.277Z,3.60
2023-03-15T07:11:57.086Z,3.97
2023-03-15T07:14:36.079Z,4.67
2023-03-15T07:17:18.104Z,4.30
2023-03-15T07:19:56.330Z,3.57
2023-03-15T07:22:48.033Z,3.40
2023-03-15T07:25:37.663Z,3.67
2023-03-15T07:28:13.131Z,3.50
2023-03-15T07:30:44.883Z,4.37
2023-03-15T07:33:23.522Z,3.20
2023-03-15T07:35:54.088Z,3.53
2023-03-15T08:01:29.398Z,4.10
2023-03-15T09:33:06.924Z,3.13
2023-03-15T09:54:28.730Z,2.73
2023-03-15T10:00:49.395Z,3.50
2023-03-15T10:04:29.014Z,3.67
2023-03-15T10:07:27.247Z,3.47
2023-03-15T10:54:06.137Z,3.13
2023-03-15T10:57:13.084Z,3.47
2023-03-15T11:02:47.053Z,2.70
2023-03-15T11:05:26.497Z,3.20
2023-03-15T11:11:53.248Z,3.57
2023-03-15T11:14:28.500Z,3.33
2023-03-15T11:17:21.790Z,2.90
2023-03-15T11:23:30.967Z,2.97
2023-03-15T11:26:51.564Z,3.70
2023-03-15T11:29:16.054Z,3.53
2023-03-15T11:35:38.900Z,3.93
2023-03-15T11:40:01.746Z,2.60
2023-03-15T11:42:23.827Z,3.00
2023-03-15T11:55:57.672Z,3.13
2023-03-15T13:20:37.411Z,2.60
2023-03-15T17:40:53.458Z,17.60
2023-03-15T17:44:23.117Z,17.33
2023-03-15T17:47:11.045Z,12.73
2023-03-15T17:53:14.849Z,12.47
2023-03-15T17:55:55.558Z,9.00
2023-03-15T17:58:53.519Z,9.90
2023-03-15T18:01:35.973Z,8.80
2023-03-15T18:04:30.214Z,10.80
2023-03-15T18:10:18.603Z,17.67
2023-03-15T18:13:05.164Z,13.87
2023-03-15T18:16:03.747Z,16.53
2023-03-15T18:19:03.579Z,15.77
2023-03-15T18:21:38.019Z,12.67
2023-03-15T18:24:20.877Z,12.05
2023-03-15T18:27:19.449Z,8.77
2023-03-15T18:29:54.905Z,9.30
2023-03-15T18:38:54.245Z,17.30
2023-03-15T18:41:36.556Z,17.07
2023-03-15T18:44:19.961Z,13.83
2023-03-15T18:49:51.194Z,12.27
2023-03-15T18:52:26.459Z,12.33
2023-03-15T18:55:58.657Z,23.27
2023-03-15T18:58:57.588Z,12.90
2023-03-15T19:01:35.328Z,10.27
2023-03-15T19:04:10.485Z,7.23
2023-03-15T19:06:38.243Z,7.05
2023-03-15T19:09:05.819Z,7.27
2023-03-15T19:11:58.317Z,6.67
2023-03-15T19:14:29.348Z,11.53
2023-03-15T19:16:58.838Z,7.37
2023-03-15T19:19:35.966Z,8.13
2023-03-15T19:22:05.894Z,7.53
2023-03-15T19:30:20.691Z,5.83
2023-03-15T19:33:14.582Z,5.33
2023-03-15T19:35:43.480Z,6.10
2023-03-15T19:38:20.285Z,6.20
2023-03-15T19:43:35.214Z,5.47
2023-03-15T19:46:27.819Z,5.30
2023-03-15T19:49:05.324Z,5.07
2023-03-15T19:51:43.183Z,6.30
2023-03-15T20:00:11.095Z,5.23
2023-03-15T20:02:39.349Z,4.27
2023-03-15T20:05:22.296Z,4.47
2023-03-15T20:07:52.135Z,4.43
2023-03-15T20:10:42.860Z,4.03
2023-03-15T20:13:23.962Z,5.00
2023-03-15T20:15:55.116Z,6.17
2023-03-15T20:18:45.986Z,6.20
2023-03-15T20:21:22.989Z,7.00
2023-03-15T20:23:56.757Z,8.77
2023-03-15T20:26:25.651Z,7.73
2023-03-15T20:29:06.379Z,6.77
2023-03-15T20:31:46.289Z,6.53
2023-03-15T20:34:27.744Z,6.37
2023-03-15T20:37:11.863Z,5.73
2023-03-15T20:39:56.698Z,6.20
2023-03-15T20:42:31.646Z,6.38
2023-03-15T20:45:09.017Z,6.88
2023-03-15T20:53:30.734Z,7.73
2023-03-15T20:56:05.218Z,8.27
2023-03-15T20:58:35.339Z,8.60
2023-03-15T21:01:17.651Z,9.13
2023-03-15T21:04:08.730Z,8.37
2023-03-15T21:06:44.054Z,7.17
2023-03-15T21:12:15.709Z,7.10
2023-03-15T21:27:23.476Z,7.63
2023-03-15T21:29:54.882Z,6.67
2023-03-15T21:32:31.079Z,7.67
2023-03-15T21:35:01.499Z,7.50
2023-03-15T21:56:46.629Z,8.53
2023-03-15T21:59:29.317Z,7.60
2023-03-15T22:02:15.584Z,7.87
2023-03-15T22:07:51.973Z,6.30
2023-03-15T22:19:19.169Z,6.47
2023-03-15T22:29:11.467Z,6.10
2023-03-15T22:32:19.516Z,6.97
2023-03-15T22:35:28.389Z,6.10
2023-03-15T22:38:14.431Z,6.60
2023-03-15T22:44:22.836Z,6.83
2023-03-15T22:49:35.118Z,8.13
2023-03-15T22:52:18.902Z,6.55
2023-03-15T22:55:07.282Z,6.57
2023-03-15T22:57:59.905Z,8.40
2023-03-15T23:00:31.355Z,6.57
2023-03-15T23:03:06.517Z,7.13
2023-03-15T23:05:37.318Z,7.40
2023-03-15T23:08:22.885Z,7.57
2023-03-15T23:11:12.101Z,6.95
2023-03-15T23:13:58.362Z,7.30
2023-03-15T23:16:37.077Z,7.37
2023-03-15T23:19:21.264Z,7.43
2023-03-15T23:22:04.562Z,7.17
2023-03-15T23:24:47.383Z,6.77
2023-03-15T23:27:25.037Z,6.93
2023-03-15T23:30:03.353Z,6.53
2023-03-15T23:32:49.909Z,6.90
2023-03-15T23:35:42.423Z,6.27
2023-03-15T23:38:30.147Z,6.77
2023-03-15T23:41:30.423Z,7.67
2023-03-15T23:44:09.115Z,6.70
2023-03-15T23:46:42.443Z,7.47
2023-03-15T23:49:20.443Z,7.57
2023-03-15T23:52:10.430Z,6.30
2023-03-15T23:54:44.894Z,7.13
2023-03-15T23:57:28.480Z,6.03
